Portada
METAR-TAF:

METAR-TAF

Aeroports :

Asahikawa, Japó

latitud: 43-40N, longitud: 142-27E, altitud: 208 m

Observació

L'informe es va fer fa 12 minuts, a les 00:00 UTC
Vent 13 kt del Sud/Sud-Est
Temperatura 18°C
Humitat 34%
Pressió 1013 hPa
Visibilitat 10 km o més
sense núvols per sota de 1500 mi sense presència de cumulonimbus.

METAR: RJEC 170000Z 16013KT CAVOK 18/02 Q1013

Hora: 09:12 (00:12 UTC)

Pronòstic

L'informe es va fer fa 1 hora i 7 minuts, a les 23:05 UTC
Pronòstic vàlid del 17 a les 00 UTC al 18 a les 06 UTC
Vent 13 kt del Sud/Sud-Oest
Visibilitat 10 km o més
Escasses núvols a una alçada de 4000 ft

TAF: RJEC 162305Z 1700/1806 20013KT 9999 FEW040

Observacions i pronòstics meteorològics de més de 4000 aeroports (METAR i TAF).

Les estacions disponibles són els punts grocs i vermells al mapa.

Posi el ratolí al punt desitjat per veure el nom de l'estació.

Feu clic per veure les observacions i els pronòstics meteorològics.

Per canviar el mapa: feu clic els botons verds amb una creu de color negre per apropar; al botó verd amb un guió per allunyar la imatge; o en les fletxes verdes per a mapes adjacents.


METAR-TAF: